sensor_id;sensor_type;location;lat;lon;timestamp;P1;durP1;ratioP1;P2;durP2;ratioP2
2211;SDS011;48849;48.758;9.158;2022-08-19T00:01:17;16.40;;;14.80;;
2211;SDS011;48849;48.758;9.158;2022-08-19T00:03:43;16.83;;;15.30;;
2211;SDS011;48849;48.758;9.158;2022-08-19T00:06:10;16.43;;;14.83;;
2211;SDS011;48849;48.758;9.158;2022-08-19T00:08:37;16.70;;;15.17;;
2211;SDS011;48849;48.758;9.158;2022-08-19T00:11:06;16.87;;;14.70;;
2211;SDS011;48849;48.758;9.158;2022-08-19T00:13:32;14.50;;;13.30;;
2211;SDS011;48849;48.758;9.158;2022-08-19T00:16:00;15.90;;;14.20;;
2211;SDS011;48849;48.758;9.158;2022-08-19T00:18:27;16.17;;;14.77;;
2211;SDS011;48849;48.758;9.158;2022-08-19T00:20:53;14.93;;;13.47;;
2211;SDS011;48849;48.758;9.158;2022-08-19T00:23:20;16.20;;;14.70;;
2211;SDS011;48849;48.758;9.158;2022-08-19T00:25:47;16.37;;;14.80;;
2211;SDS011;48849;48.758;9.158;2022-08-19T00:28:15;15.23;;;13.93;;
2211;SDS011;48849;48.758;9.158;2022-08-19T00:30:42;16.80;;;15.23;;
2211;SDS011;48849;48.758;9.158;2022-08-19T00:33:08;14.60;;;13.30;;
2211;SDS011;48849;48.758;9.158;2022-08-19T00:35:35;15.37;;;14.00;;
2211;SDS011;48849;48.758;9.158;2022-08-19T00:38:03;16.47;;;14.97;;
2211;SDS011;48849;48.758;9.158;2022-08-19T00:40:31;16.10;;;14.70;;
2211;SDS011;48849;48.758;9.158;2022-08-19T00:42:58;16.20;;;14.80;;
2211;SDS011;48849;48.758;9.158;2022-08-19T00:45:27;16.00;;;14.50;;
2211;SDS011;48849;48.758;9.158;2022-08-19T00:47:57;16.70;;;15.10;;
2211;SDS011;48849;48.758;9.158;2022-08-19T00:50:28;17.27;;;15.60;;
2211;SDS011;48849;48.758;9.158;2022-08-19T00:52:55;15.43;;;13.93;;
2211;SDS011;48849;48.758;9.158;2022-08-19T00:55:25;15.73;;;14.27;;
2211;SDS011;48849;48.758;9.158;2022-08-19T00:57:54;17.70;;;16.07;;
2211;SDS011;48849;48.758;9.158;2022-08-19T01:00:24;16.70;;;15.20;;
2211;SDS011;48849;48.758;9.158;2022-08-19T01:02:53;16.63;;;15.03;;
2211;SDS011;48849;48.758;9.158;2022-08-19T01:05:21;14.97;;;13.57;;
2211;SDS011;48849;48.758;9.158;2022-08-19T01:07:52;16.60;;;15.00;;
2211;SDS011;48849;48.758;9.158;2022-08-19T01:10:21;16.47;;;15.07;;
2211;SDS011;48849;48.758;9.158;2022-08-19T01:12:52;17.10;;;15.40;;
2211;SDS011;48849;48.758;9.158;2022-08-19T01:15:21;16.83;;;15.23;;
2211;SDS011;48849;48.758;9.158;2022-08-19T01:17:53;17.07;;;15.57;;
2211;SDS011;48849;48.758;9.158;2022-08-19T01:20:22;16.90;;;15.23;;
2211;SDS011;48849;48.758;9.158;2022-08-19T01:22:51;16.63;;;15.13;;
2211;SDS011;48849;48.758;9.158;2022-08-19T01:25:20;16.00;;;14.70;;
2211;SDS011;48849;48.758;9.158;2022-08-19T01:27:50;17.00;;;15.30;;
2211;SDS011;48849;48.758;9.158;2022-08-19T01:30:17;16.97;;;15.37;;
2211;SDS011;48849;48.758;9.158;2022-08-19T01:32:47;15.80;;;14.30;;
2211;SDS011;48849;48.758;9.158;2022-08-19T01:35:14;16.20;;;14.70;;
2211;SDS011;48849;48.758;9.158;2022-08-19T01:37:43;15.90;;;14.33;;
2211;SDS011;48849;48.758;9.158;2022-08-19T01:40:13;16.80;;;15.30;;
2211;SDS011;48849;48.758;9.158;2022-08-19T01:42:40;16.43;;;14.83;;
2211;SDS011;48849;48.758;9.158;2022-08-19T01:45:07;16.10;;;14.70;;
2211;SDS011;48849;48.758;9.158;2022-08-19T01:47:35;16.73;;;15.17;;
2211;SDS011;48849;48.758;9.158;2022-08-19T01:50:02;17.33;;;15.73;;
2211;SDS011;48849;48.758;9.158;2022-08-19T01:52:30;18.03;;;16.43;;
2211;SDS011;48849;48.758;9.158;2022-08-19T01:54:56;16.60;;;15.20;;
2211;SDS011;48849;48.758;9.158;2022-08-19T01:57:25;16.63;;;15.13;;
2211;SDS011;48849;48.758;9.158;2022-08-19T01:59:52;18.20;;;16.50;;
2211;SDS011;48849;48.758;9.158;2022-08-19T02:02:18;16.70;;;15.10;;
2211;SDS011;48849;48.758;9.158;2022-08-19T02:04:45;17.33;;;15.73;;
2211;SDS011;48849;48.758;9.158;2022-08-19T02:07:12;16.67;;;15.20;;
2211;SDS011;48849;48.758;9.158;2022-08-19T02:09:39;17.67;;;15.87;;
2211;SDS011;48849;48.758;9.158;2022-08-19T02:12:06;17.93;;;16.23;;
2211;SDS011;48849;48.758;9.158;2022-08-19T02:14:35;16.77;;;15.27;;
2211;SDS011;48849;48.758;9.158;2022-08-19T02:17:02;18.70;;;16.90;;
2211;SDS011;48849;48.758;9.158;2022-08-19T02:19:29;19.10;;;17.30;;
2211;SDS011;48849;48.758;9.158;2022-08-19T02:21:57;17.47;;;15.97;;
2211;SDS011;48849;48.758;9.158;2022-08-19T02:24:24;19.20;;;17.50;;
2211;SDS011;48849;48.758;9.158;2022-08-19T02:26:51;17.80;;;16.20;;
2211;SDS011;48849;48.758;9.158;2022-08-19T02:29:18;18.70;;;16.80;;
2211;SDS011;48849;48.758;9.158;2022-08-19T02:31:47;17.67;;;16.00;;
2211;SDS011;48849;48.758;9.158;2022-08-19T02:34:14;20.93;;;19.03;;
2211;SDS011;48849;48.758;9.158;2022-08-19T02:36:42;20.17;;;18.17;;
2211;SDS011;48849;48.758;9.158;2022-08-19T02:39:09;19.87;;;17.87;;
2211;SDS011;48849;48.758;9.158;2022-08-19T02:41:35;17.77;;;16.17;;
2211;SDS011;48849;48.758;9.158;2022-08-19T02:44:02;19.17;;;17.33;;
2211;SDS011;48849;48.758;9.158;2022-08-19T02:46:31;18.03;;;16.23;;
2211;SDS011;48849;48.758;9.158;2022-08-19T02:49:02;20.53;;;18.30;;
2211;SDS011;48849;48.758;9.158;2022-08-19T02:51:31;20.43;;;18.57;;
2211;SDS011;48849;48.758;9.158;2022-08-19T02:54:00;21.23;;;19.23;;
2211;SDS011;48849;48.758;9.158;2022-08-19T02:56:27;20.23;;;18.30;;
2211;SDS011;48849;48.758;9.158;2022-08-19T02:58:54;19.40;;;17.40;;
2211;SDS011;48849;48.758;9.158;2022-08-19T03:01:22;20.00;;;18.10;;
2211;SDS011;48849;48.758;9.158;2022-08-19T03:03:50;22.97;;;20.17;;
2211;SDS011;48849;48.758;9.158;2022-08-19T03:06:18;20.53;;;18.60;;
2211;SDS011;48849;48.758;9.158;2022-08-19T03:08:47;19.20;;;17.40;;
2211;SDS011;48849;48.758;9.158;2022-08-19T03:11:14;21.30;;;19.20;;
2211;SDS011;48849;48.758;9.158;2022-08-19T03:13:42;22.43;;;20.13;;
2211;SDS011;48849;48.758;9.158;2022-08-19T03:16:10;21.50;;;19.20;;
2211;SDS011;48849;48.758;9.158;2022-08-19T03:18:37;21.73;;;19.70;;
2211;SDS011;48849;48.758;9.158;2022-08-19T03:21:04;21.00;;;18.80;;
2211;SDS011;48849;48.758;9.158;2022-08-19T03:23:33;21.60;;;19.50;;
2211;SDS011;48849;48.758;9.158;2022-08-19T03:26:02;21.80;;;19.50;;
2211;SDS011;48849;48.758;9.158;2022-08-19T03:28:31;21.87;;;19.67;;
2211;SDS011;48849;48.758;9.158;2022-08-19T03:30:59;21.00;;;19.07;;
2211;SDS011;48849;48.758;9.158;2022-08-19T03:33:28;20.73;;;18.63;;
2211;SDS011;48849;48.758;9.158;2022-08-19T03:36:05;22.60;;;20.40;;
2211;SDS011;48849;48.758;9.158;2022-08-19T03:38:34;21.57;;;19.53;;
2211;SDS011;48849;48.758;9.158;2022-08-19T03:41:02;22.63;;;20.43;;
2211;SDS011;48849;48.758;9.158;2022-08-19T03:43:33;24.00;;;21.60;;
2211;SDS011;48849;48.758;9.158;2022-08-19T03:46:00;22.60;;;20.50;;
2211;SDS011;48849;48.758;9.158;2022-08-19T03:48:29;23.53;;;21.17;;
2211;SDS011;48849;48.758;9.158;2022-08-19T03:50:57;24.97;;;22.53;;
2211;SDS011;48849;48.758;9.158;2022-08-19T03:53:25;24.90;;;22.57;;
2211;SDS011;48849;48.758;9.158;2022-08-19T03:55:53;24.67;;;22.07;;
2211;SDS011;48849;48.758;9.158;2022-08-19T03:58:21;23.43;;;21.13;;
2211;SDS011;48849;48.758;9.158;2022-08-19T04:00:48;21.93;;;19.83;;
2211;SDS011;48849;48.758;9.158;2022-08-19T04:03:15;24.33;;;21.83;;
2211;SDS011;48849;48.758;9.158;2022-08-19T04:05:43;23.13;;;20.70;;
2211;SDS011;48849;48.758;9.158;2022-08-19T04:08:10;25.23;;;22.53;;
2211;SDS011;48849;48.758;9.158;2022-08-19T04:10:37;24.90;;;22.30;;
2211;SDS011;48849;48.758;9.158;2022-08-19T04:13:06;26.47;;;23.87;;
2211;SDS011;48849;48.758;9.158;2022-08-19T04:15:38;24.40;;;22.00;;
2211;SDS011;48849;48.758;9.158;2022-08-19T04:18:06;25.93;;;23.23;;
2211;SDS011;48849;48.758;9.158;2022-08-19T04:20:38;23.60;;;21.20;;
2211;SDS011;48849;48.758;9.158;2022-08-19T04:23:05;24.37;;;21.90;;
2211;SDS011;48849;48.758;9.158;2022-08-19T04:25:34;24.43;;;22.03;;
2211;SDS011;48849;48.758;9.158;2022-08-19T04:28:02;26.57;;;24.10;;
2211;SDS011;48849;48.758;9.158;2022-08-19T04:30:30;25.87;;;23.37;;
2211;SDS011;48849;48.758;9.158;2022-08-19T04:33:02;26.17;;;23.50;;
2211;SDS011;48849;48.758;9.158;2022-08-19T04:35:33;25.53;;;22.93;;
2211;SDS011;48849;48.758;9.158;2022-08-19T04:38:01;24.10;;;21.80;;
2211;SDS011;48849;48.758;9.158;2022-08-19T04:40:28;24.93;;;22.53;;
2211;SDS011;48849;48.758;9.158;2022-08-19T04:43:12;26.30;;;23.70;;
2211;SDS011;48849;48.758;9.158;2022-08-19T04:45:41;25.87;;;23.37;;
2211;SDS011;48849;48.758;9.158;2022-08-19T04:48:09;25.00;;;22.70;;
2211;SDS011;48849;48.758;9.158;2022-08-19T04:50:35;24.83;;;22.43;;
2211;SDS011;48849;48.758;9.158;2022-08-19T04:53:05;25.70;;;23.17;;
2211;SDS011;48849;48.758;9.158;2022-08-19T04:55:32;23.73;;;21.43;;
2211;SDS011;48849;48.758;9.158;2022-08-19T04:58:00;25.50;;;23.10;;
2211;SDS011;48849;48.758;9.158;2022-08-19T05:00:27;25.70;;;23.00;;
2211;SDS011;48849;48.758;9.158;2022-08-19T05:02:55;24.33;;;21.90;;
2211;SDS011;48849;48.758;9.158;2022-08-19T05:05:22;24.87;;;22.43;;
2211;SDS011;48849;48.758;9.158;2022-08-19T05:07:48;24.90;;;22.53;;
2211;SDS011;48849;48.758;9.158;2022-08-19T05:10:15;24.83;;;22.20;;
2211;SDS011;48849;48.758;9.158;2022-08-19T05:12:42;24.27;;;21.90;;
2211;SDS011;48849;48.758;9.158;2022-08-19T05:15:09;24.23;;;21.93;;
2211;SDS011;48849;48.758;9.158;2022-08-19T05:17:36;27.10;;;24.43;;
2211;SDS011;48849;48.758;9.158;2022-08-19T05:20:04;27.97;;;25.17;;
2211;SDS011;48849;48.758;9.158;2022-08-19T05:22:50;24.40;;;21.90;;
2211;SDS011;48849;48.758;9.158;2022-08-19T05:25:18;22.33;;;20.13;;
2211;SDS011;48849;48.758;9.158;2022-08-19T05:27:46;24.93;;;22.57;;
2211;SDS011;48849;48.758;9.158;2022-08-19T05:30:13;26.60;;;24.00;;
2211;SDS011;48849;48.758;9.158;2022-08-19T05:32:41;24.73;;;22.30;;
2211;SDS011;48849;48.758;9.158;2022-08-19T05:35:09;23.80;;;21.40;;
2211;SDS011;48849;48.758;9.158;2022-08-19T05:37:36;24.97;;;22.37;;
2211;SDS011;48849;48.758;9.158;2022-08-19T05:40:05;25.60;;;23.00;;
2211;SDS011;48849;48.758;9.158;2022-08-19T05:42:32;23.60;;;21.30;;
2211;SDS011;48849;48.758;9.158;2022-08-19T05:45:00;27.73;;;25.03;;
2211;SDS011;48849;48.758;9.158;2022-08-19T05:47:26;25.70;;;23.30;;
2211;SDS011;48849;48.758;9.158;2022-08-19T05:49:53;23.83;;;20.97;;
2211;SDS011;48849;48.758;9.158;2022-08-19T05:52:21;25.83;;;23.40;;
2211;SDS011;48849;48.758;9.158;2022-08-19T05:54:48;23.77;;;21.57;;
2211;SDS011;48849;48.758;9.158;2022-08-19T05:57:16;24.97;;;22.37;;
2211;SDS011;48849;48.758;9.158;2022-08-19T05:59:43;24.17;;;21.77;;
2211;SDS011;48849;48.758;9.158;2022-08-19T06:02:10;24.63;;;22.33;;
2211;SDS011;48849;48.758;9.158;2022-08-19T06:04:38;24.83;;;22.30;;
2211;SDS011;48849;48.758;9.158;2022-08-19T06:07:07;24.27;;;21.90;;
2211;SDS011;48849;48.758;9.158;2022-08-19T06:09:35;23.37;;;20.87;;
2211;SDS011;48849;48.758;9.158;2022-08-19T06:12:03;21.90;;;19.70;;
2211;SDS011;48849;48.758;9.158;2022-08-19T06:14:30;24.30;;;22.00;;
2211;SDS011;48849;48.758;9.158;2022-08-19T06:16:59;21.83;;;19.83;;
2211;SDS011;48849;48.758;9.158;2022-08-19T06:19:27;22.97;;;20.77;;
2211;SDS011;48849;48.758;9.158;2022-08-19T06:21:55;22.37;;;20.07;;
2211;SDS011;48849;48.758;9.158;2022-08-19T06:24:24;22.57;;;20.37;;
2211;SDS011;48849;48.758;9.158;2022-08-19T06:26:54;24.30;;;21.93;;
2211;SDS011;48849;48.758;9.158;2022-08-19T06:29:23;22.50;;;20.20;;
2211;SDS011;48849;48.758;9.158;2022-08-19T06:31:52;22.33;;;20.17;;
2211;SDS011;48849;48.758;9.158;2022-08-19T06:34:21;23.80;;;21.40;;
2211;SDS011;48849;48.758;9.158;2022-08-19T06:36:49;23.67;;;21.27;;
2211;SDS011;48849;48.758;9.158;2022-08-19T06:39:18;25.27;;;22.63;;
2211;SDS011;48849;48.758;9.158;2022-08-19T06:41:46;23.27;;;21.03;;
2211;SDS011;48849;48.758;9.158;2022-08-19T06:44:16;23.40;;;21.30;;
2211;SDS011;48849;48.758;9.158;2022-08-19T06:46:44;24.60;;;22.10;;
2211;SDS011;48849;48.758;9.158;2022-08-19T06:49:10;26.00;;;22.40;;
2211;SDS011;48849;48.758;9.158;2022-08-19T06:51:39;26.13;;;23.67;;
2211;SDS011;48849;48.758;9.158;2022-08-19T06:54:07;24.47;;;22.17;;
2211;SDS011;48849;48.758;9.158;2022-08-19T06:56:34;23.77;;;21.60;;
2211;SDS011;48849;48.758;9.158;2022-08-19T06:59:03;24.33;;;21.93;;
2211;SDS011;48849;48.758;9.158;2022-08-19T07:01:35;27.37;;;22.30;;
2211;SDS011;48849;48.758;9.158;2022-08-19T07:04:02;25.07;;;22.67;;
2211;SDS011;48849;48.758;9.158;2022-08-19T07:06:29;24.80;;;22.23;;
2211;SDS011;48849;48.758;9.158;2022-08-19T07:08:57;23.47;;;21.27;;
2211;SDS011;48849;48.758;9.158;2022-08-19T07:11:24;24.33;;;21.93;;
2211;SDS011;48849;48.758;9.158;2022-08-19T07:13:51;24.63;;;22.10;;
2211;SDS011;48849;48.758;9.158;2022-08-19T07:16:18;22.93;;;20.87;;
2211;SDS011;48849;48.758;9.158;2022-08-19T07:18:47;24.67;;;22.27;;
2211;SDS011;48849;48.758;9.158;2022-08-19T07:21:15;25.43;;;22.93;;
2211;SDS011;48849;48.758;9.158;2022-08-19T07:23:44;25.87;;;23.47;;
2211;SDS011;48849;48.758;9.158;2022-08-19T07:26:13;23.03;;;20.73;;
2211;SDS011;48849;48.758;9.158;2022-08-19T07:28:44;24.33;;;22.13;;
2211;SDS011;48849;48.758;9.158;2022-08-19T07:31:11;24.60;;;22.30;;
2211;SDS011;48849;48.758;9.158;2022-08-19T07:33:40;23.70;;;21.30;;
2211;SDS011;48849;48.758;9.158;2022-08-19T07:36:10;24.93;;;22.53;;
2211;SDS011;48849;48.758;9.158;2022-08-19T07:38:38;21.30;;;19.40;;
2211;SDS011;48849;48.758;9.158;2022-08-19T07:41:06;22.87;;;20.63;;
2211;SDS011;48849;48.758;9.158;2022-08-19T07:43:35;24.27;;;21.87;;
2211;SDS011;48849;48.758;9.158;2022-08-19T07:46:02;24.27;;;22.03;;
2211;SDS011;48849;48.758;9.158;2022-08-19T07:48:29;22.13;;;19.93;;
2211;SDS011;48849;48.758;9.158;2022-08-19T07:50:58;24.73;;;22.53;;
2211;SDS011;48849;48.758;9.158;2022-08-19T07:53:29;24.63;;;22.23;;
2211;SDS011;48849;48.758;9.158;2022-08-19T07:55:57;22.57;;;20.33;;
2211;SDS011;48849;48.758;9.158;2022-08-19T07:58:29;21.60;;;19.67;;
2211;SDS011;48849;48.758;9.158;2022-08-19T08:00:57;22.73;;;20.53;;
2211;SDS011;48849;48.758;9.158;2022-08-19T08:03:25;24.13;;;21.77;;
2211;SDS011;48849;48.758;9.158;2022-08-19T08:06:07;20.97;;;19.00;;
2211;SDS011;48849;48.758;9.158;2022-08-19T08:08:52;23.03;;;20.83;;
2211;SDS011;48849;48.758;9.158;2022-08-19T08:11:43;22.10;;;20.07;;
2211;SDS011;48849;48.758;9.158;2022-08-19T08:14:14;21.93;;;19.87;;
2211;SDS011;48849;48.758;9.158;2022-08-19T08:16:42;20.73;;;18.63;;
2211;SDS011;48849;48.758;9.158;2022-08-19T08:19:10;21.23;;;19.33;;
2211;SDS011;48849;48.758;9.158;2022-08-19T08:21:39;21.43;;;19.47;;
2211;SDS011;48849;48.758;9.158;2022-08-19T08:24:08;20.90;;;18.87;;
2211;SDS011;48849;48.758;9.158;2022-08-19T08:26:35;19.70;;;17.83;;
2211;SDS011;48849;48.758;9.158;2022-08-19T08:29:02;20.97;;;19.10;;
2211;SDS011;48849;48.758;9.158;2022-08-19T08:31:29;20.70;;;18.80;;
2211;SDS011;48849;48.758;9.158;2022-08-19T08:33:56;21.40;;;19.50;;
2211;SDS011;48849;48.758;9.158;2022-08-19T08:36:22;22.00;;;20.00;;
2211;SDS011;48849;48.758;9.158;2022-08-19T08:38:49;19.80;;;18.00;;
2211;SDS011;48849;48.758;9.158;2022-08-19T08:41:22;21.17;;;19.27;;
2211;SDS011;48849;48.758;9.158;2022-08-19T08:43:54;19.27;;;17.57;;
2211;SDS011;48849;48.758;9.158;2022-08-19T08:46:24;21.67;;;19.57;;
2211;SDS011;48849;48.758;9.158;2022-08-19T08:49:06;19.07;;;17.37;;
2211;SDS011;48849;48.758;9.158;2022-08-19T08:51:45;19.93;;;17.87;;
2211;SDS011;48849;48.758;9.158;2022-08-19T08:54:14;21.93;;;19.50;;
2211;SDS011;48849;48.758;9.158;2022-08-19T08:56:46;22.97;;;20.90;;
2211;SDS011;48849;48.758;9.158;2022-08-19T08:59:16;21.60;;;19.70;;
2211;SDS011;48849;48.758;9.158;2022-08-19T09:01:48;20.43;;;18.50;;
2211;SDS011;48849;48.758;9.158;2022-08-19T09:04:14;21.43;;;19.30;;
2211;SDS011;48849;48.758;9.158;2022-08-19T09:06:44;21.90;;;19.80;;
2211;SDS011;48849;48.758;9.158;2022-08-19T09:09:18;21.37;;;19.23;;
2211;SDS011;48849;48.758;9.158;2022-08-19T09:12:00;21.53;;;19.40;;
2211;SDS011;48849;48.758;9.158;2022-08-19T09:14:36;23.00;;;20.90;;
2211;SDS011;48849;48.758;9.158;2022-08-19T09:17:08;21.20;;;19.27;;
2211;SDS011;48849;48.758;9.158;2022-08-19T09:19:35;20.17;;;18.03;;
2211;SDS011;48849;48.758;9.158;2022-08-19T09:22:12;20.93;;;18.97;;
2211;SDS011;48849;48.758;9.158;2022-08-19T09:24:40;22.00;;;20.00;;
2211;SDS011;48849;48.758;9.158;2022-08-19T09:27:08;21.90;;;19.80;;
2211;SDS011;48849;48.758;9.158;2022-08-19T09:29:35;21.37;;;19.40;;
2211;SDS011;48849;48.758;9.158;2022-08-19T09:32:02;20.77;;;18.40;;
2211;SDS011;48849;48.758;9.158;2022-08-19T09:34:29;20.43;;;18.43;;
2211;SDS011;48849;48.758;9.158;2022-08-19T09:36:57;21.77;;;19.80;;
2211;SDS011;48849;48.758;9.158;2022-08-19T09:39:25;20.20;;;18.27;;
2211;SDS011;48849;48.758;9.158;2022-08-19T09:41:51;20.87;;;18.97;;
2211;SDS011;48849;48.758;9.158;2022-08-19T09:44:20;20.97;;;18.77;;
2211;SDS011;48849;48.758;9.158;2022-08-19T09:46:46;19.23;;;17.33;;
2211;SDS011;48849;48.758;9.158;2022-08-19T09:49:14;19.30;;;17.43;;
2211;SDS011;48849;48.758;9.158;2022-08-19T09:51:42;18.43;;;16.83;;
2211;SDS011;48849;48.758;9.158;2022-08-19T09:54:08;19.20;;;17.50;;
2211;SDS011;48849;48.758;9.158;2022-08-19T09:56:35;19.00;;;17.30;;
2211;SDS011;48849;48.758;9.158;2022-08-19T09:59:02;17.87;;;16.37;;
2211;SDS011;48849;48.758;9.158;2022-08-19T10:01:31;17.03;;;15.50;;
2211;SDS011;48849;48.758;9.158;2022-08-19T10:03:59;17.93;;;16.23;;
2211;SDS011;48849;48.758;9.158;2022-08-19T10:06:28;18.40;;;16.47;;
2211;SDS011;48849;48.758;9.158;2022-08-19T10:08:58;16.70;;;15.00;;
2211;SDS011;48849;48.758;9.158;2022-08-19T10:11:25;16.00;;;14.60;;
2211;SDS011;48849;48.758;9.158;2022-08-19T10:13:53;19.20;;;15.67;;
2211;SDS011;48849;48.758;9.158;2022-08-19T10:16:21;15.93;;;14.23;;
2211;SDS011;48849;48.758;9.158;2022-08-19T10:18:49;16.50;;;14.90;;
2211;SDS011;48849;48.758;9.158;2022-08-19T10:21:18;18.13;;;16.43;;
2211;SDS011;48849;48.758;9.158;2022-08-19T10:23:47;16.13;;;14.53;;
2211;SDS011;48849;48.758;9.158;2022-08-19T10:26:16;16.47;;;14.87;;
2211;SDS011;48849;48.758;9.158;2022-08-19T10:28:44;16.40;;;14.90;;
2211;SDS011;48849;48.758;9.158;2022-08-19T10:31:11;15.73;;;14.23;;
2211;SDS011;48849;48.758;9.158;2022-08-19T10:33:39;14.70;;;13.47;;
2211;SDS011;48849;48.758;9.158;2022-08-19T10:36:09;17.43;;;15.77;;
2211;SDS011;48849;48.758;9.158;2022-08-19T10:38:40;15.07;;;13.47;;
2211;SDS011;48849;48.758;9.158;2022-08-19T10:41:08;14.13;;;12.80;;
2211;SDS011;48849;48.758;9.158;2022-08-19T10:43:35;16.30;;;14.63;;
2211;SDS011;48849;48.758;9.158;2022-08-19T10:46:03;16.20;;;14.43;;
2211;SDS011;48849;48.758;9.158;2022-08-19T10:48:30;17.27;;;15.40;;
2211;SDS011;48849;48.758;9.158;2022-08-19T10:50:57;15.33;;;14.03;;
2211;SDS011;48849;48.758;9.158;2022-08-19T10:53:43;15.03;;;13.63;;
2211;SDS011;48849;48.758;9.158;2022-08-19T10:56:10;15.00;;;13.60;;
2211;SDS011;48849;48.758;9.158;2022-08-19T10:58:54;17.67;;;16.03;;
2211;SDS011;48849;48.758;9.158;2022-08-19T11:01:22;18.40;;;16.50;;
2211;SDS011;48849;48.758;9.158;2022-08-19T11:03:49;15.03;;;13.70;;
2211;SDS011;48849;48.758;9.158;2022-08-19T11:06:15;15.20;;;13.17;;
2211;SDS011;48849;48.758;9.158;2022-08-19T11:08:44;14.77;;;13.37;;
2211;SDS011;48849;48.758;9.158;2022-08-19T11:11:10;16.63;;;15.03;;
2211;SDS011;48849;48.758;9.158;2022-08-19T11:13:39;14.30;;;12.60;;
2211;SDS011;48849;48.758;9.158;2022-08-19T11:16:08;12.43;;;11.27;;
2211;SDS011;48849;48.758;9.158;2022-08-19T11:18:39;13.63;;;12.37;;
2211;SDS011;48849;48.758;9.158;2022-08-19T11:21:09;11.77;;;10.87;;
2211;SDS011;48849;48.758;9.158;2022-08-19T11:23:37;11.90;;;10.70;;
2211;SDS011;48849;48.758;9.158;2022-08-19T11:26:05;14.83;;;13.47;;
2211;SDS011;48849;48.758;9.158;2022-08-19T11:28:32;12.90;;;11.60;;
2211;SDS011;48849;48.758;9.158;2022-08-19T11:30:59;13.23;;;12.13;;
2211;SDS011;48849;48.758;9.158;2022-08-19T11:33:27;14.30;;;13.00;;
2211;SDS011;48849;48.758;9.158;2022-08-19T11:35:54;13.47;;;12.27;;
2211;SDS011;48849;48.758;9.158;2022-08-19T11:38:23;15.13;;;12.97;;
2211;SDS011;48849;48.758;9.158;2022-08-19T11:40:53;14.20;;;12.80;;
2211;SDS011;48849;48.758;9.158;2022-08-19T11:43:22;13.40;;;12.00;;
2211;SDS011;48849;48.758;9.158;2022-08-19T11:45:51;12.43;;;11.23;;
2211;SDS011;48849;48.758;9.158;2022-08-19T11:48:18;11.80;;;10.70;;
2211;SDS011;48849;48.758;9.158;2022-08-19T11:50:46;13.20;;;12.10;;
2211;SDS011;48849;48.758;9.158;2022-08-19T11:53:13;12.00;;;11.10;;
2211;SDS011;48849;48.758;9.158;2022-08-19T11:55:40;11.33;;;10.37;;
2211;SDS011;48849;48.758;9.158;2022-08-19T11:58:08;12.03;;;10.93;;
2211;SDS011;48849;48.758;9.158;2022-08-19T12:00:36;11.77;;;10.77;;
2211;SDS011;48849;48.758;9.158;2022-08-19T12:03:05;11.70;;;10.70;;
2211;SDS011;48849;48.758;9.158;2022-08-19T12:05:32;11.60;;;10.63;;
2211;SDS011;48849;48.758;9.158;2022-08-19T12:07:59;11.10;;;10.00;;
2211;SDS011;48849;48.758;9.158;2022-08-19T12:10:26;12.13;;;11.13;;
2211;SDS011;48849;48.758;9.158;2022-08-19T12:12:52;11.50;;;10.60;;
2211;SDS011;48849;48.758;9.158;2022-08-19T12:15:19;11.90;;;10.90;;
2211;SDS011;48849;48.758;9.158;2022-08-19T12:17:47;12.67;;;11.00;;
2211;SDS011;48849;48.758;9.158;2022-08-19T12:20:14;12.00;;;10.90;;
2211;SDS011;48849;48.758;9.158;2022-08-19T12:22:42;12.47;;;11.37;;
2211;SDS011;48849;48.758;9.158;2022-08-19T12:25:09;11.05;;;10.15;;
2211;SDS011;48849;48.758;9.158;2022-08-19T12:27:37;10.80;;;9.90;;
2211;SDS011;48849;48.758;9.158;2022-08-19T12:30:06;10.97;;;10.07;;
2211;SDS011;48849;48.758;9.158;2022-08-19T12:32:35;11.87;;;10.70;;
2211;SDS011;48849;48.758;9.158;2022-08-19T12:35:03;11.27;;;10.37;;
2211;SDS011;48849;48.758;9.158;2022-08-19T12:37:31;11.80;;;10.60;;
2211;SDS011;48849;48.758;9.158;2022-08-19T12:39:58;11.83;;;10.63;;
2211;SDS011;48849;48.758;9.158;2022-08-19T12:42:25;11.80;;;10.57;;
2211;SDS011;48849;48.758;9.158;2022-08-19T12:44:52;11.23;;;10.33;;
2211;SDS011;48849;48.758;9.158;2022-08-19T12:47:19;12.13;;;11.13;;
2211;SDS011;48849;48.758;9.158;2022-08-19T12:49:46;12.77;;;11.50;;
2211;SDS011;48849;48.758;9.158;2022-08-19T12:52:15;13.60;;;12.40;;
2211;SDS011;48849;48.758;9.158;2022-08-19T12:54:46;13.40;;;12.07;;
2211;SDS011;48849;48.758;9.158;2022-08-19T12:57:12;12.40;;;11.20;;
2211;SDS011;48849;48.758;9.158;2022-08-19T12:59:40;13.50;;;12.30;;
2211;SDS011;48849;48.758;9.158;2022-08-19T13:02:07;14.80;;;13.33;;
2211;SDS011;48849;48.758;9.158;2022-08-19T13:04:35;13.70;;;12.50;;
2211;SDS011;48849;48.758;9.158;2022-08-19T13:07:05;16.57;;;15.07;;
2211;SDS011;48849;48.758;9.158;2022-08-19T13:09:34;17.17;;;15.40;;
2211;SDS011;48849;48.758;9.158;2022-08-19T13:12:01;16.20;;;14.80;;
2211;SDS011;48849;48.758;9.158;2022-08-19T13:14:32;15.93;;;14.53;;
2211;SDS011;48849;48.758;9.158;2022-08-19T13:16:59;14.17;;;12.93;;
2211;SDS011;48849;48.758;9.158;2022-08-19T13:19:26;16.87;;;15.20;;
2211;SDS011;48849;48.758;9.158;2022-08-19T13:21:53;16.23;;;14.60;;
2211;SDS011;48849;48.758;9.158;2022-08-19T13:24:20;19.10;;;17.30;;
2211;SDS011;48849;48.758;9.158;2022-08-19T13:26:48;18.80;;;16.90;;
2211;SDS011;48849;48.758;9.158;2022-08-19T13:29:15;19.73;;;17.93;;
2211;SDS011;48849;48.758;9.158;2022-08-19T13:31:59;21.90;;;19.70;;
2211;SDS011;48849;48.758;9.158;2022-08-19T13:34:43;25.33;;;22.83;;
2211;SDS011;48849;48.758;9.158;2022-08-19T13:37:11;23.27;;;21.00;;
2211;SDS011;48849;48.758;9.158;2022-08-19T13:39:38;25.57;;;23.07;;
2211;SDS011;48849;48.758;9.158;2022-08-19T13:42:06;28.90;;;26.10;;
2211;SDS011;48849;48.758;9.158;2022-08-19T13:44:34;26.20;;;23.50;;
2211;SDS011;48849;48.758;9.158;2022-08-19T13:47:01;27.57;;;24.77;;
2211;SDS011;48849;48.758;9.158;2022-08-19T13:49:32;25.73;;;23.07;;
2211;SDS011;48849;48.758;9.158;2022-08-19T13:52:01;24.53;;;22.23;;
2211;SDS011;48849;48.758;9.158;2022-08-19T13:54:28;27.33;;;24.43;;
2211;SDS011;48849;48.758;9.158;2022-08-19T13:56:55;24.30;;;21.90;;
2211;SDS011;48849;48.758;9.158;2022-08-19T13:59:23;27.03;;;24.33;;
2211;SDS011;48849;48.758;9.158;2022-08-19T14:01:50;26.80;;;24.10;;
2211;SDS011;48849;48.758;9.158;2022-08-19T14:04:16;29.20;;;26.30;;
2211;SDS011;48849;48.758;9.158;2022-08-19T14:06:43;26.47;;;24.00;;
2211;SDS011;48849;48.758;9.158;2022-08-19T14:09:10;20.63;;;18.83;;
2211;SDS011;48849;48.758;9.158;2022-08-19T14:11:36;28.30;;;25.60;;
2211;SDS011;48849;48.758;9.158;2022-08-19T14:14:03;28.47;;;25.67;;
2211;SDS011;48849;48.758;9.158;2022-08-19T14:16:31;27.93;;;25.17;;
2211;SDS011;48849;48.758;9.158;2022-08-19T14:18:58;27.50;;;25.00;;
2211;SDS011;48849;48.758;9.158;2022-08-19T14:21:25;26.93;;;24.33;;
2211;SDS011;48849;48.758;9.158;2022-08-19T14:23:52;27.90;;;25.40;;
2211;SDS011;48849;48.758;9.158;2022-08-19T14:26:20;28.77;;;26.10;;
2211;SDS011;48849;48.758;9.158;2022-08-19T14:28:47;26.37;;;23.97;;
2211;SDS011;48849;48.758;9.158;2022-08-19T14:31:15;26.43;;;23.70;;
2211;SDS011;48849;48.758;9.158;2022-08-19T14:33:45;25.77;;;23.27;;
2211;SDS011;48849;48.758;9.158;2022-08-19T14:36:12;25.30;;;22.90;;
2211;SDS011;48849;48.758;9.158;2022-08-19T14:38:39;26.77;;;24.27;;
2211;SDS011;48849;48.758;9.158;2022-08-19T14:41:07;25.60;;;23.20;;